createdAt,value
2023-02-22T00:01:42.805Z,100957.38
2023-02-22T00:04:15.985Z,100933.66
2023-02-22T00:06:48.162Z,100938.00
2023-02-22T00:09:21.432Z,100950.28
2023-02-22T00:11:52.788Z,100925.66
2023-02-22T00:14:27.357Z,100948.47
2023-02-22T00:16:59.902Z,100947.63
2023-02-22T00:19:31.522Z,100930.09
2023-02-22T00:22:02.964Z,100949.47
2023-02-22T00:24:36.032Z,100931.00
2023-02-22T00:27:07.318Z,100953.00
2023-02-22T00:29:38.986Z,100949.47
2023-02-22T00:32:10.303Z,100936.34
2023-02-22T00:34:43.545Z,100951.28
2023-02-22T00:37:14.816Z,100931.91
2023-02-22T00:39:48.230Z,100927.50
2023-02-22T00:42:20.134Z,100934.50
2023-02-22T00:44:51.460Z,100944.16
2023-02-22T00:47:23.097Z,100954.72
2023-02-22T00:49:54.417Z,100949.41
2023-02-22T00:52:27.581Z,100947.63
2023-02-22T00:54:59.932Z,100946.78
2023-02-22T00:57:31.877Z,100926.50
2023-02-22T01:00:11.894Z,100928.25
2023-02-22T01:02:43.537Z,100938.78
2023-02-22T01:05:16.263Z,100947.63
2023-02-22T01:07:48.779Z,100937.91
2023-02-22T01:10:21.976Z,100935.25
2023-02-22T01:12:54.398Z,100936.13
2023-02-22T01:15:30.721Z,100939.66
2023-02-22T01:18:02.433Z,100933.53
2023-02-22T01:20:34.231Z,100917.75
2023-02-22T01:23:07.691Z,100928.31
2023-02-22T01:25:39.004Z,100923.06
2023-02-22T01:28:10.300Z,100919.59
2023-02-22T01:30:41.855Z,100914.34
2023-02-22T01:33:13.426Z,100912.56
2023-02-22T01:35:46.169Z,100930.16
2023-02-22T01:38:17.514Z,100923.09
2023-02-22T01:40:50.919Z,100905.47
2023-02-22T01:43:31.388Z,100879.09
2023-02-22T01:46:04.094Z,100913.34
2023-02-22T01:48:41.976Z,100910.69
2023-02-22T01:51:18.030Z,100908.97
2023-02-22T01:53:52.434Z,100907.25
2023-02-22T01:56:26.610Z,100880.94
2023-02-22T01:59:02.453Z,100904.63
2023-02-22T02:01:36.300Z,100888.78
2023-02-22T02:04:11.943Z,100878.28
2023-02-22T02:06:47.964Z,100878.16
2023-02-22T02:09:40.825Z,100905.41
2023-02-22T02:12:15.834Z,100884.28
2023-02-22T02:14:47.132Z,100895.72
2023-02-22T02:17:22.227Z,100889.53
2023-02-22T02:20:16.055Z,100886.88
2023-02-22T02:23:11.750Z,100883.34
2023-02-22T02:26:12.275Z,100864.81
2023-02-22T02:29:01.615Z,100874.47
2023-02-22T02:32:09.177Z,100873.56
2023-02-22T02:34:49.641Z,100874.44
2023-02-22T02:37:52.988Z,100871.81
2023-02-22T02:40:45.229Z,100875.34
2023-02-22T02:43:29.324Z,100868.31
2023-02-22T02:46:07.458Z,100866.53
2023-02-22T02:48:45.482Z,100863.00
2023-02-22T02:51:19.006Z,100842.84
2023-02-22T02:53:52.290Z,100859.50
2023-02-22T02:56:24.468Z,100838.44
2023-02-22T02:58:55.753Z,100853.34
2023-02-22T03:01:57.332Z,100855.94
2023-02-22T03:05:01.268Z,100857.72
2023-02-22T03:07:56.735Z,100851.56
2023-02-22T03:11:03.987Z,100824.31
2023-02-22T03:13:58.683Z,100832.22
2023-02-22T03:16:43.477Z,100845.44
2023-02-22T03:19:37.088Z,100844.47
2023-02-22T03:22:18.736Z,100845.31
2023-02-22T03:25:08.925Z,100827.75
2023-02-22T03:27:54.229Z,100832.16
2023-02-22T03:30:47.001Z,100840.00
2023-02-22T03:33:28.705Z,100823.28
2023-02-22T03:36:05.304Z,100836.41
2023-02-22T03:38:38.405Z,100831.09
2023-02-22T03:41:11.795Z,100832.88
2023-02-22T03:43:49.440Z,100824.09
2023-02-22T03:46:22.157Z,100831.09
2023-02-22T03:49:14.239Z,100819.75
2023-02-22T03:51:46.288Z,100843.47
2023-02-22T03:54:17.797Z,100848.75
2023-02-22T03:56:58.876Z,100838.19
2023-02-22T03:59:30.655Z,100844.34
2023-02-22T04:02:02.117Z,100837.25
2023-02-22T04:04:33.467Z,100843.47
2023-02-22T04:07:04.773Z,100841.69
2023-02-22T04:09:36.058Z,100838.16
2023-02-22T04:12:07.598Z,100828.44
2023-02-22T04:14:38.898Z,100835.53
2023-02-22T04:17:10.281Z,100818.88
2023-02-22T04:19:41.640Z,100833.72
2023-02-22T04:22:12.930Z,100828.47
2023-02-22T04:24:45.250Z,100833.69
2023-02-22T04:27:16.542Z,100828.47
2023-02-22T04:29:47.855Z,100830.31
2023-02-22T04:32:19.201Z,100821.47
2023-02-22T04:34:50.494Z,100820.66
2023-02-22T04:37:21.828Z,100807.44
2023-02-22T04:39:53.199Z,100835.53
2023-02-22T04:42:24.496Z,100817.94
2023-02-22T04:44:55.769Z,100833.72
2023-02-22T04:47:27.180Z,100833.75
2023-02-22T04:50:00.316Z,100829.34
2023-02-22T04:52:31.737Z,100803.06
2023-02-22T04:55:04.709Z,100820.59
2023-02-22T04:57:36.066Z,100817.97
2023-02-22T05:00:10.152Z,100823.28
2023-02-22T05:02:41.514Z,100824.16
2023-02-22T05:05:15.447Z,100820.66
2023-02-22T05:07:47.850Z,100813.66
2023-02-22T05:10:19.376Z,100804.03
2023-02-22T05:12:51.572Z,100829.53
2023-02-22T05:15:25.152Z,100810.19
2023-02-22T05:17:56.431Z,100827.75
2023-02-22T05:20:33.611Z,100828.59
2023-02-22T05:23:05.577Z,100825.94
2023-02-22T05:25:36.988Z,100824.22
2023-02-22T05:28:12.702Z,100826.81
2023-02-22T05:30:44.424Z,100825.06
2023-02-22T05:33:15.863Z,100822.44
2023-02-22T05:35:47.166Z,100791.75
2023-02-22T05:38:18.492Z,100825.06
2023-02-22T05:40:49.935Z,100811.00
2023-02-22T05:43:21.249Z,100818.91
2023-02-22T05:45:52.592Z,100806.66
2023-02-22T05:48:23.891Z,100799.69
2023-02-22T05:50:55.988Z,100805.75
2023-02-22T05:53:27.668Z,100811.88
2023-02-22T05:55:59.253Z,100804.84
2023-02-22T05:58:30.528Z,100789.91
2023-02-22T06:01:03.312Z,100819.78
2023-02-22T06:03:34.807Z,100812.75
2023-02-22T06:06:06.304Z,100805.66
2023-02-22T06:08:37.577Z,100794.28
2023-02-22T06:11:11.777Z,100792.56
2023-02-22T06:13:49.338Z,100787.25
2023-02-22T06:16:21.444Z,100803.94
2023-02-22T06:18:52.892Z,100789.00
2023-02-22T06:21:24.219Z,100812.75
2023-02-22T06:23:55.637Z,100758.41
2023-02-22T06:26:26.974Z,100764.59
2023-02-22T06:28:58.246Z,100809.22
2023-02-22T06:31:29.662Z,100804.84
2023-02-22T06:34:01.128Z,100803.97
2023-02-22T06:36:32.440Z,100811.03
2023-02-22T06:39:03.723Z,100806.66
2023-02-22T06:41:37.808Z,100803.97
2023-02-22T06:44:10.674Z,100797.84
2023-02-22T06:46:48.014Z,100797.00
2023-02-22T06:49:20.161Z,100797.84
2023-02-22T06:51:51.460Z,100821.59
2023-02-22T06:54:23.315Z,100811.88
2023-02-22T06:56:54.588Z,100808.41
2023-02-22T06:59:26.114Z,100801.31
2023-02-22T07:01:57.408Z,100813.66
2023-02-22T07:04:28.658Z,100790.88
2023-02-22T07:07:00.027Z,100797.00
2023-02-22T07:09:31.496Z,100802.16
2023-02-22T07:12:02.885Z,100795.19
2023-02-22T07:14:34.151Z,100792.66
2023-02-22T07:17:05.481Z,100809.22
2023-02-22T07:19:36.771Z,100789.03
2023-02-22T07:22:08.023Z,100798.66
2023-02-22T07:24:41.263Z,100804.84
2023-02-22T07:27:12.518Z,100800.44
2023-02-22T07:29:44.168Z,100800.34
2023-02-22T07:32:15.463Z,100810.94
2023-02-22T07:34:46.792Z,100794.22
2023-02-22T07:37:18.048Z,100797.66
2023-02-22T07:39:49.355Z,100793.25
2023-02-22T07:42:20.624Z,100787.16
2023-02-22T07:44:51.902Z,100778.38
2023-02-22T07:47:23.189Z,100777.56
2023-02-22T07:49:54.471Z,100768.84
2023-02-22T07:52:25.737Z,100785.47
2023-02-22T07:54:57.131Z,100758.34
2023-02-22T07:57:28.389Z,100783.72
2023-02-22T07:59:59.659Z,100781.03
2023-02-22T08:02:30.940Z,100789.75
2023-02-22T08:05:02.269Z,100782.59
2023-02-22T08:07:33.622Z,100778.97
2023-02-22T08:10:07.848Z,100785.91
2023-02-22T08:12:39.213Z,100780.59
2023-02-22T08:15:17.734Z,100754.22
2023-02-22T08:17:49.023Z,100781.41
2023-02-22T08:20:21.264Z,100778.69
2023-02-22T08:22:53.027Z,100776.91
2023-02-22T08:25:27.784Z,100772.38
2023-02-22T08:28:05.282Z,100773.22
2023-02-22T08:30:40.411Z,100764.38
2023-02-22T08:33:15.112Z,100753.16
2023-02-22T08:35:49.497Z,100754.91
2023-02-22T08:38:27.209Z,100772.50
2023-02-22T08:40:58.521Z,100770.66
2023-02-22T08:43:29.803Z,100759.88
2023-02-22T08:46:01.131Z,100771.22
2023-02-22T08:48:32.418Z,100735.97
2023-02-22T08:51:03.947Z,100768.38
2023-02-22T08:53:35.230Z,100777.91
2023-02-22T08:56:06.733Z,100753.16
2023-02-22T08:58:38.066Z,100770.50
2023-02-22T09:01:09.356Z,100769.56
2023-02-22T09:03:40.762Z,100774.66
2023-02-22T09:06:12.308Z,100780.75
2023-02-22T09:08:43.603Z,100778.06
2023-02-22T09:11:15.133Z,100771.66
2023-02-22T09:13:46.593Z,100771.50
2023-02-22T09:16:18.000Z,100771.25
2023-02-22T09:18:49.284Z,100766.69
2023-02-22T09:21:20.594Z,100743.69
2023-02-22T09:23:54.588Z,100753.31
2023-02-22T09:26:27.580Z,100759.28
2023-02-22T09:28:58.840Z,100751.94
2023-02-22T09:31:30.148Z,100750.91
2023-02-22T09:34:04.131Z,100747.25
2023-02-22T09:36:35.665Z,100745.41
2023-02-22T09:39:07.633Z,100730.53
2023-02-22T09:41:53.724Z,100743.78
2023-02-22T09:44:36.107Z,100737.69
2023-02-22T09:47:15.289Z,100734.22
2023-02-22T09:49:58.589Z,100742.06
2023-02-22T09:52:39.350Z,100739.22
2023-02-22T09:55:34.184Z,100739.00
2023-02-22T09:58:18.551Z,100716.06
2023-02-22T10:00:59.506Z,100744.22
2023-02-22T10:03:35.935Z,100743.47
2023-02-22T10:06:12.384Z,100735.59
2023-02-22T10:08:45.157Z,100732.94
2023-02-22T10:11:23.975Z,100732.75
2023-02-22T10:14:28.286Z,100682.56
2023-02-22T10:17:24.565Z,100712.91
2023-02-22T10:20:30.906Z,100719.03
2023-02-22T10:23:05.069Z,100731.38
2023-02-22T10:25:38.251Z,100691.53
2023-02-22T10:28:19.664Z,100708.03
2023-02-22T10:30:59.041Z,100693.84
2023-02-22T10:33:37.078Z,100700.38
2023-02-22T10:36:39.040Z,100704.31
2023-02-22T10:39:28.053Z,100703.22
2023-02-22T10:42:06.006Z,100694.91
2023-02-22T10:44:39.179Z,100691.13
2023-02-22T10:47:16.590Z,100691.84
2023-02-22T10:49:55.517Z,100694.47
2023-02-22T10:52:30.145Z,100685.78
2023-02-22T10:55:15.298Z,100682.03
2023-02-22T10:57:51.058Z,100688.91
2023-02-22T11:00:29.471Z,100677.47
2023-02-22T11:03:19.364Z,100682.63
2023-02-22T11:05:50.731Z,100694.16
2023-02-22T11:08:22.095Z,100691.41
2023-02-22T11:11:01.544Z,100665.94
2023-02-22T11:13:42.019Z,100676.75
2023-02-22T11:16:36.237Z,100675.91
2023-02-22T11:19:24.279Z,100657.63
2023-02-22T11:22:23.383Z,100670.69
2023-02-22T11:25:01.677Z,100665.19
2023-02-22T11:27:52.248Z,100663.34
2023-02-22T11:30:35.072Z,100641.50
2023-02-22T11:33:23.889Z,100631.81
2023-02-22T11:36:08.654Z,100651.06
2023-02-22T11:38:54.581Z,100638.06
2023-02-22T11:41:30.922Z,100646.06
2023-02-22T11:44:14.828Z,100640.72
2023-02-22T11:46:46.258Z,100623.38
2023-02-22T11:49:18.049Z,100628.63
2023-02-22T11:52:27.070Z,100627.50
2023-02-22T11:55:09.930Z,100632.03
2023-02-22T11:58:06.923Z,100622.03
2023-02-22T12:00:56.451Z,100620.81
2023-02-22T12:03:53.917Z,100615.88
2023-02-22T12:06:32.341Z,100598.09
2023-02-22T12:09:13.980Z,100601.50
2023-02-22T12:11:51.590Z,100610.41
2023-02-22T12:14:41.874Z,100599.91
2023-02-22T12:17:39.005Z,100595.66
2023-02-22T12:20:22.105Z,100579.34
2023-02-22T12:23:06.750Z,100589.03
2023-02-22T12:25:43.998Z,100590.78
2023-02-22T12:28:24.992Z,100578.53
2023-02-22T12:31:11.402Z,100589.59
2023-02-22T12:33:51.656Z,100584.00
2023-02-22T12:36:32.306Z,100585.66
2023-02-22T12:39:25.205Z,100582.03
2023-02-22T12:41:57.995Z,100582.06
2023-02-22T12:44:34.458Z,100567.00
2023-02-22T12:47:08.163Z,100580.16
2023-02-22T12:49:54.428Z,100573.91
2023-02-22T12:52:28.574Z,100581.50
2023-02-22T12:55:16.546Z,100589.44
2023-02-22T12:58:25.113Z,100582.28
2023-02-22T13:01:14.852Z,100572.31
2023-02-22T13:03:46.779Z,100562.31
2023-02-22T13:06:44.980Z,100570.72
2023-02-22T13:09:43.339Z,100569.44
2023-02-22T13:12:39.078Z,100548.06
2023-02-22T13:15:19.502Z,100539.03
2023-02-22T13:18:03.720Z,100546.63
2023-02-22T13:20:41.908Z,100558.69
2023-02-22T13:23:38.885Z,100560.97
2023-02-22T13:26:31.178Z,100558.09
2023-02-22T13:29:10.099Z,100560.66
2023-02-22T13:32:20.646Z,100549.88
2023-02-22T13:35:00.981Z,100546.38
2023-02-22T13:37:46.979Z,100552.72
2023-02-22T13:40:48.761Z,100542.75
2023-02-22T13:43:38.200Z,100547.91
2023-02-22T13:46:46.087Z,100542.47
2023-02-22T13:49:40.400Z,100533.81
2023-02-22T13:52:17.194Z,100534.78
2023-02-22T13:54:54.772Z,100543.78
2023-02-22T13:57:36.583Z,100542.09
2023-02-22T14:00:20.772Z,100533.38
2023-02-22T14:03:31.311Z,100539.72
2023-02-22T14:06:04.536Z,100539.06
2023-02-22T14:08:35.823Z,100547.28
2023-02-22T14:11:33.042Z,100534.88
2023-02-22T14:14:07.187Z,100538.47
2023-02-22T14:16:38.630Z,100544.84
2023-02-22T14:19:13.188Z,100544.16
2023-02-22T14:22:01.852Z,100534.72
2023-02-22T14:24:45.748Z,100541.75
2023-02-22T14:27:17.774Z,100540.97
2023-02-22T14:29:56.138Z,100543.84
2023-02-22T14:32:33.006Z,100526.31
2023-02-22T14:35:26.518Z,100527.94
2023-02-22T14:38:02.161Z,100523.66
2023-02-22T14:40:37.594Z,100526.88
2023-02-22T14:43:19.795Z,100527.75
2023-02-22T14:46:00.298Z,100519.09
2023-02-22T14:48:42.594Z,100521.75
2023-02-22T14:51:26.532Z,100513.13
2023-02-22T14:54:08.687Z,100517.59
2023-02-22T14:56:55.579Z,100514.44
2023-02-22T14:59:28.292Z,100499.81
2023-02-22T15:02:12.039Z,100493.50
2023-02-22T15:04:51.584Z,100507.47
2023-02-22T15:07:29.412Z,100497.81
2023-02-22T15:10:17.772Z,100504.16
2023-02-22T15:12:52.785Z,100495.44
2023-02-22T15:15:24.120Z,100502.75
2023-02-22T15:17:57.146Z,100490.47
2023-02-22T15:20:29.205Z,100489.75
2023-02-22T15:23:00.893Z,100491.63
2023-02-22T15:25:32.392Z,100495.31
2023-02-22T15:28:05.179Z,100490.19
2023-02-22T15:30:37.647Z,100486.78
2023-02-22T15:33:17.915Z,100481.63
2023-02-22T15:35:55.204Z,100489.84
2023-02-22T15:38:29.344Z,100477.00
2023-02-22T15:41:05.753Z,100491.97
2023-02-22T15:43:38.440Z,100487.69
2023-02-22T15:46:09.882Z,100483.50
2023-02-22T15:48:41.505Z,100486.34
2023-02-22T15:51:14.366Z,100487.22
2023-02-22T15:53:48.322Z,100480.50
2023-02-22T15:56:29.933Z,100496.47
2023-02-22T15:59:15.885Z,100493.09
2023-02-22T16:01:50.457Z,100481.09
2023-02-22T16:04:26.761Z,100498.88
2023-02-22T16:07:07.093Z,100494.59
2023-02-22T16:09:38.400Z,100489.56
2023-02-22T16:12:24.039Z,100497.63
2023-02-22T16:14:56.228Z,100480.25
2023-02-22T16:17:39.829Z,100481.22
2023-02-22T16:20:20.414Z,100497.13
2023-02-22T16:22:51.809Z,100497.28
2023-02-22T16:25:31.077Z,100478.06
2023-02-22T16:28:35.375Z,100487.75
2023-02-22T16:31:09.073Z,100493.22
2023-02-22T16:33:42.714Z,100487.22
2023-02-22T16:36:14.863Z,100477.00
2023-02-22T16:38:48.401Z,100484.00
2023-02-22T16:41:19.898Z,100484.28
2023-02-22T16:43:51.319Z,100498.47
2023-02-22T16:46:22.817Z,100473.13
2023-02-22T16:48:54.280Z,100478.50
2023-02-22T16:51:28.139Z,100488.19
2023-02-22T16:53:59.434Z,100483.19
2023-02-22T16:56:32.261Z,100483.28
2023-02-22T16:59:10.849Z,100492.97
2023-02-22T17:01:42.973Z,100505.47
2023-02-22T17:04:25.781Z,100495.13
2023-02-22T17:06:58.986Z,100504.78
2023-02-22T17:09:30.419Z,100505.81
2023-02-22T17:12:02.338Z,100488.41
2023-02-22T17:14:35.342Z,100506.06
2023-02-22T17:17:07.705Z,100505.25
2023-02-22T17:19:39.073Z,100494.06
2023-02-22T17:22:21.266Z,100509.91
2023-02-22T17:24:52.608Z,100518.81
2023-02-22T17:27:23.910Z,100513.72
2023-02-22T17:29:55.209Z,100509.47
2023-02-22T17:32:26.756Z,100521.81
2023-02-22T17:35:04.039Z,100506.97
2023-02-22T17:37:35.527Z,100507.97
2023-02-22T17:40:07.272Z,100522.88
2023-02-22T17:42:38.617Z,100521.19
2023-02-22T17:45:13.783Z,100514.22
2023-02-22T17:47:45.187Z,100516.94
2023-02-22T17:50:17.307Z,100522.22
2023-02-22T17:52:51.490Z,100519.59
2023-02-22T17:55:22.834Z,100518.81
2023-02-22T17:57:59.056Z,100518.00
2023-02-22T18:00:33.549Z,100524.97
2023-02-22T18:03:08.766Z,100520.69
2023-02-22T18:05:46.215Z,100530.41
2023-02-22T18:08:17.659Z,100520.78
2023-02-22T18:10:52.606Z,100515.59
2023-02-22T18:13:26.962Z,100526.97
2023-02-22T18:15:59.855Z,100526.09
2023-02-22T18:18:32.341Z,100516.38
2023-02-22T18:21:06.111Z,100526.09
2023-02-22T18:23:37.438Z,100526.13
2023-02-22T18:26:14.912Z,100524.34
2023-02-22T18:28:48.558Z,100503.34
2023-02-22T18:31:22.159Z,100520.84
2023-02-22T18:33:53.534Z,100519.13
2023-02-22T18:36:25.086Z,100487.56
2023-02-22T18:38:56.432Z,100522.63
2023-02-22T18:41:28.372Z,100505.09
2023-02-22T18:44:00.342Z,100498.09
2023-02-22T18:46:31.938Z,100517.28
2023-02-22T18:49:04.174Z,100512.03
2023-02-22T18:51:35.734Z,100521.78
2023-02-22T18:54:07.050Z,100516.50
2023-02-22T18:56:40.161Z,100514.75
2023-02-22T18:59:12.492Z,100510.34
2023-02-22T19:01:48.785Z,100497.31
2023-02-22T19:04:21.580Z,100514.03
2023-02-22T19:06:57.464Z,100506.06
2023-02-22T19:09:30.208Z,100507.91
2023-02-22T19:12:02.137Z,100505.38
2023-02-22T19:14:33.461Z,100504.56
2023-02-22T19:17:07.244Z,100516.00
2023-02-22T19:19:38.575Z,100515.13
2023-02-22T19:22:14.944Z,100500.28
2023-02-22T19:24:46.763Z,100506.41
2023-02-22T19:27:18.087Z,100514.41
2023-02-22T19:29:50.081Z,100512.69
2023-02-22T19:32:22.978Z,100480.38
2023-02-22T19:35:01.897Z,100487.41
2023-02-22T19:37:33.977Z,100497.06
2023-02-22T19:40:08.781Z,100479.56
2023-02-22T19:42:40.087Z,100500.59
2023-02-22T19:45:11.389Z,100495.31
2023-02-22T19:47:42.676Z,100480.47
2023-02-22T19:50:15.405Z,100499.75
2023-02-22T19:52:47.787Z,100489.16
2023-02-22T19:55:19.183Z,100492.66
2023-02-22T19:57:50.994Z,100479.53
2023-02-22T20:00:25.192Z,100488.22
2023-02-22T20:03:05.514Z,100489.09
2023-02-22T20:05:41.873Z,100480.38
2023-02-22T20:08:13.239Z,100480.41
2023-02-22T20:10:44.604Z,100490.06
2023-02-22T20:13:16.984Z,100489.19
2023-02-22T20:15:50.607Z,100489.19
2023-02-22T20:18:22.883Z,100480.50
2023-02-22T20:20:54.313Z,100483.16
2023-02-22T20:23:25.747Z,100479.66
2023-02-22T20:25:57.078Z,100469.28
2023-02-22T20:28:28.589Z,100476.22
2023-02-22T20:30:59.966Z,100482.28
2023-02-22T20:33:31.373Z,100484.94
2023-02-22T20:36:06.436Z,100480.56
2023-02-22T20:38:38.669Z,100489.41
2023-02-22T20:41:24.463Z,100477.16
2023-02-22T20:43:57.040Z,100486.84
2023-02-22T20:46:33.556Z,100482.47
2023-02-22T20:49:11.053Z,100480.81
2023-02-22T20:51:43.208Z,100486.19
2023-02-22T20:54:15.292Z,100484.47
2023-02-22T20:56:47.652Z,100477.50
2023-02-22T20:59:19.810Z,100465.25
2023-02-22T21:01:52.898Z,100441.63
2023-02-22T21:04:24.278Z,100481.94
2023-02-22T21:06:55.586Z,100452.22
2023-02-22T21:09:27.018Z,100476.72
2023-02-22T21:11:58.320Z,100469.72
2023-02-22T21:14:32.327Z,100474.09
2023-02-22T21:17:04.590Z,100451.28
2023-02-22T21:19:36.605Z,100456.63
2023-02-22T21:22:08.477Z,100475.03
2023-02-22T21:24:39.880Z,100476.78
2023-02-22T21:27:12.150Z,100456.66
2023-02-22T21:29:43.468Z,100459.41
2023-02-22T21:32:14.980Z,100469.00
2023-02-22T21:34:46.436Z,100469.91
2023-02-22T21:37:18.383Z,100469.03
2023-02-22T21:39:49.665Z,100467.31
2023-02-22T21:42:20.980Z,100467.31
2023-02-22T21:44:56.013Z,100462.16
2023-02-22T21:47:27.854Z,100458.63
2023-02-22T21:50:01.619Z,100458.75
2023-02-22T21:52:32.881Z,100467.53
2023-02-22T21:55:06.147Z,100448.28
2023-02-22T21:57:37.842Z,100472.88
2023-02-22T22:00:28.886Z,100464.09
2023-02-22T22:03:07.781Z,100466.81
2023-02-22T22:05:40.164Z,100458.97
2023-02-22T22:08:19.458Z,100465.97
2023-02-22T22:10:55.238Z,100443.28
2023-02-22T22:13:27.975Z,100460.75
2023-02-22T22:16:04.324Z,100466.03
2023-02-22T22:18:37.428Z,100463.41
2023-02-22T22:21:11.435Z,100466.94
2023-02-22T22:23:45.390Z,100465.25
2023-02-22T22:26:20.937Z,100460.88
2023-02-22T22:28:54.779Z,100464.44
2023-02-22T22:31:28.132Z,100453.09
2023-02-22T22:33:59.512Z,100444.38
2023-02-22T22:36:30.843Z,100446.19
2023-02-22T22:39:04.570Z,100441.78
2023-02-22T22:41:36.444Z,100462.84
2023-02-22T22:44:09.634Z,100435.72
2023-02-22T22:46:41.762Z,100461.13
2023-02-22T22:49:13.457Z,100454.13
2023-02-22T22:51:47.280Z,100456.75
2023-02-22T22:54:18.583Z,100457.69
2023-02-22T22:56:49.880Z,100464.69
2023-02-22T22:59:21.580Z,100455.06
2023-02-22T23:01:54.643Z,100455.94
2023-02-22T23:04:25.942Z,100445.53
2023-02-22T23:06:57.231Z,100459.56
2023-02-22T23:09:31.464Z,100463.94
2023-02-22T23:12:08.935Z,100459.53
2023-02-22T23:14:43.860Z,100438.53
2023-02-22T23:17:30.655Z,100452.56
2023-02-22T23:20:01.915Z,100449.94
2023-02-22T23:22:33.231Z,100461.41
2023-02-22T23:25:06.907Z,100464.09
2023-02-22T23:27:38.304Z,100442.28
2023-02-22T23:30:14.771Z,100454.56
2023-02-22T23:32:48.958Z,100462.41
2023-02-22T23:35:20.291Z,100466.84
2023-02-22T23:37:53.598Z,100445.00
2023-02-22T23:40:25.869Z,100468.63
2023-02-22T23:42:57.502Z,100445.88
2023-02-22T23:45:28.797Z,100468.69
2023-02-22T23:48:01.558Z,100455.56
2023-02-22T23:50:36.197Z,100462.59
2023-02-22T23:53:15.010Z,100468.78
2023-02-22T23:55:46.356Z,100477.59
2023-02-22T23:58:17.740Z,100461.84
